sensor_id;sensor_type;location;lat;lon;timestamp;temperature;humidity
55036;DHT22;40936;53.008;6.556;2023-06-04T00:00:32;12.00;99.90
55036;DHT22;40936;53.008;6.556;2023-06-04T00:02:57;12.10;99.90
55036;DHT22;40936;53.008;6.556;2023-06-04T00:05:23;12.00;99.90
55036;DHT22;40936;53.008;6.556;2023-06-04T00:07:51;12.00;99.90
55036;DHT22;40936;53.008;6.556;2023-06-04T00:10:17;12.00;99.90
55036;DHT22;40936;53.008;6.556;2023-06-04T00:12:43;11.90;99.90
55036;DHT22;40936;53.008;6.556;2023-06-04T00:15:09;11.90;99.90
55036;DHT22;40936;53.008;6.556;2023-06-04T00:17:35;11.90;99.90
55036;DHT22;40936;53.008;6.556;2023-06-04T00:20:01;11.80;99.90
55036;DHT22;40936;53.008;6.556;2023-06-04T00:22:26;11.80;99.90
55036;DHT22;40936;53.008;6.556;2023-06-04T00:24:52;11.70;99.90
55036;DHT22;40936;53.008;6.556;2023-06-04T00:27:18;11.70;99.90
55036;DHT22;40936;53.008;6.556;2023-06-04T00:29:43;11.70;99.90
55036;DHT22;40936;53.008;6.556;2023-06-04T00:32:09;11.60;99.90
55036;DHT22;40936;53.008;6.556;2023-06-04T00:34:35;11.60;99.90
55036;DHT22;40936;53.008;6.556;2023-06-04T00:37:01;11.60;99.90
55036;DHT22;40936;53.008;6.556;2023-06-04T00:39:27;11.60;99.90
55036;DHT22;40936;53.008;6.556;2023-06-04T00:41:52;11.50;99.90
55036;DHT22;40936;53.008;6.556;2023-06-04T00:44:18;11.50;99.90
55036;DHT22;40936;53.008;6.556;2023-06-04T00:46:47;11.50;99.90
55036;DHT22;40936;53.008;6.556;2023-06-04T00:49:13;11.50;99.90
55036;DHT22;40936;53.008;6.556;2023-06-04T00:51:39;11.40;99.90
55036;DHT22;40936;53.008;6.556;2023-06-04T00:54:04;11.40;99.90
55036;DHT22;40936;53.008;6.556;2023-06-04T00:56:35;11.40;99.90
55036;DHT22;40936;53.008;6.556;2023-06-04T00:59:03;11.30;99.90
55036;DHT22;40936;53.008;6.556;2023-06-04T01:04:32;11.30;99.90
55036;DHT22;40936;53.008;6.556;2023-06-04T01:07:02;11.30;99.90
55036;DHT22;40936;53.008;6.556;2023-06-04T01:09:28;11.30;99.90
55036;DHT22;40936;53.008;6.556;2023-06-04T01:11:54;11.20;99.90
55036;DHT22;40936;53.008;6.556;2023-06-04T01:14:23;11.20;99.90
55036;DHT22;40936;53.008;6.556;2023-06-04T01:16:56;11.30;99.90
55036;DHT22;40936;53.008;6.556;2023-06-04T01:25:38;11.20;99.90
55036;DHT22;40936;53.008;6.556;2023-06-04T01:28:06;11.10;99.90
55036;DHT22;40936;53.008;6.556;2023-06-04T01:30:36;11.00;99.90
55036;DHT22;40936;53.008;6.556;2023-06-04T01:33:12;11.10;99.90
55036;DHT22;40936;53.008;6.556;2023-06-04T01:35:38;11.00;99.90
55036;DHT22;40936;53.008;6.556;2023-06-04T01:38:04;11.00;99.90
55036;DHT22;40936;53.008;6.556;2023-06-04T01:40:30;11.00;99.90
55036;DHT22;40936;53.008;6.556;2023-06-04T01:42:56;11.00;99.90
55036;DHT22;40936;53.008;6.556;2023-06-04T01:45:22;11.00;99.90
55036;DHT22;40936;53.008;6.556;2023-06-04T01:47:48;11.00;99.90
55036;DHT22;40936;53.008;6.556;2023-06-04T01:50:14;11.00;99.90
55036;DHT22;40936;53.008;6.556;2023-06-04T01:52:40;10.90;99.90
55036;DHT22;40936;53.008;6.556;2023-06-04T01:55:11;10.90;99.90
55036;DHT22;40936;53.008;6.556;2023-06-04T01:57:43;11.00;99.90
55036;DHT22;40936;53.008;6.556;2023-06-04T02:00:10;11.00;99.90
55036;DHT22;40936;53.008;6.556;2023-06-04T02:02:37;11.00;99.90
55036;DHT22;40936;53.008;6.556;2023-06-04T02:05:04;10.90;99.90
55036;DHT22;40936;53.008;6.556;2023-06-04T02:07:37;10.90;99.90
55036;DHT22;40936;53.008;6.556;2023-06-04T02:10:08;10.80;99.90
55036;DHT22;40936;53.008;6.556;2023-06-04T02:12:36;10.80;99.90
55036;DHT22;40936;53.008;6.556;2023-06-04T02:15:03;10.80;99.90
55036;DHT22;40936;53.008;6.556;2023-06-04T02:17:29;10.70;99.90
55036;DHT22;40936;53.008;6.556;2023-06-04T02:19:58;10.70;99.90
55036;DHT22;40936;53.008;6.556;2023-06-04T02:22:25;10.70;99.90
55036;DHT22;40936;53.008;6.556;2023-06-04T02:24:51;10.60;99.90
55036;DHT22;40936;53.008;6.556;2023-06-04T02:27:17;10.60;99.90
55036;DHT22;40936;53.008;6.556;2023-06-04T02:29:43;10.60;99.90
55036;DHT22;40936;53.008;6.556;2023-06-04T02:32:09;10.60;99.90
55036;DHT22;40936;53.008;6.556;2023-06-04T02:34:35;10.60;99.90
55036;DHT22;40936;53.008;6.556;2023-06-04T02:37:02;10.50;99.90
55036;DHT22;40936;53.008;6.556;2023-06-04T02:39:28;10.50;99.90
55036;DHT22;40936;53.008;6.556;2023-06-04T02:41:53;10.50;99.90
55036;DHT22;40936;53.008;6.556;2023-06-04T02:44:19;10.50;99.90
55036;DHT22;40936;53.008;6.556;2023-06-04T02:46:45;10.50;99.90
55036;DHT22;40936;53.008;6.556;2023-06-04T02:49:11;10.40;99.90
55036;DHT22;40936;53.008;6.556;2023-06-04T02:51:44;10.40;99.90
55036;DHT22;40936;53.008;6.556;2023-06-04T02:54:10;10.40;99.90
55036;DHT22;40936;53.008;6.556;2023-06-04T02:56:36;10.40;99.90
55036;DHT22;40936;53.008;6.556;2023-06-04T02:59:03;10.30;99.90
55036;DHT22;40936;53.008;6.556;2023-06-04T03:01:29;10.30;99.90
55036;DHT22;40936;53.008;6.556;2023-06-04T03:03:55;10.20;99.90
55036;DHT22;40936;53.008;6.556;2023-06-04T03:06:22;10.20;99.90
55036;DHT22;40936;53.008;6.556;2023-06-04T03:08:48;10.30;99.90
55036;DHT22;40936;53.008;6.556;2023-06-04T03:11:14;10.10;99.90
55036;DHT22;40936;53.008;6.556;2023-06-04T03:13:40;10.10;99.90
55036;DHT22;40936;53.008;6.556;2023-06-04T03:16:06;10.10;99.90
55036;DHT22;40936;53.008;6.556;2023-06-04T03:18:36;10.10;99.90
55036;DHT22;40936;53.008;6.556;2023-06-04T03:21:04;10.10;99.90
55036;DHT22;40936;53.008;6.556;2023-06-04T03:23:30;10.10;99.90
55036;DHT22;40936;53.008;6.556;2023-06-04T03:25:56;10.10;99.90
55036;DHT22;40936;53.008;6.556;2023-06-04T03:28:22;10.10;99.90
55036;DHT22;40936;53.008;6.556;2023-06-04T03:30:48;10.10;99.90
55036;DHT22;40936;53.008;6.556;2023-06-04T03:33:13;10.00;99.90
55036;DHT22;40936;53.008;6.556;2023-06-04T03:35:42;10.00;99.90
55036;DHT22;40936;53.008;6.556;2023-06-04T03:38:08;10.10;99.90
55036;DHT22;40936;53.008;6.556;2023-06-04T03:40:33;10.00;99.90
55036;DHT22;40936;53.008;6.556;2023-06-04T03:42:59;10.00;99.90
55036;DHT22;40936;53.008;6.556;2023-06-04T03:45:26;10.20;99.90
55036;DHT22;40936;53.008;6.556;2023-06-04T03:47:51;10.00;99.90
55036;DHT22;40936;53.008;6.556;2023-06-04T03:50:18;10.10;99.90
55036;DHT22;40936;53.008;6.556;2023-06-04T03:52:44;10.10;99.90
55036;DHT22;40936;53.008;6.556;2023-06-04T03:55:10;10.10;99.90
55036;DHT22;40936;53.008;6.556;2023-06-04T03:57:36;10.10;99.90
55036;DHT22;40936;53.008;6.556;2023-06-04T04:00:05;10.40;99.90
55036;DHT22;40936;53.008;6.556;2023-06-04T04:02:32;10.10;99.90
55036;DHT22;40936;53.008;6.556;2023-06-04T04:04:57;10.10;99.90
55036;DHT22;40936;53.008;6.556;2023-06-04T04:07:23;10.10;99.90
55036;DHT22;40936;53.008;6.556;2023-06-04T04:09:51;10.10;99.90
55036;DHT22;40936;53.008;6.556;2023-06-04T04:12:16;10.20;99.90
55036;DHT22;40936;53.008;6.556;2023-06-04T04:14:42;10.10;99.90
55036;DHT22;40936;53.008;6.556;2023-06-04T04:17:08;10.10;99.90
55036;DHT22;40936;53.008;6.556;2023-06-04T04:19:34;10.20;99.90
55036;DHT22;40936;53.008;6.556;2023-06-04T04:22:00;10.20;99.90
55036;DHT22;40936;53.008;6.556;2023-06-04T04:24:26;10.20;99.90
55036;DHT22;40936;53.008;6.556;2023-06-04T04:26:53;10.20;99.90
55036;DHT22;40936;53.008;6.556;2023-06-04T04:29:22;10.20;99.90
55036;DHT22;40936;53.008;6.556;2023-06-04T04:31:50;10.20;99.90
55036;DHT22;40936;53.008;6.556;2023-06-04T04:34:16;10.20;99.90
55036;DHT22;40936;53.008;6.556;2023-06-04T04:36:43;10.20;99.90
55036;DHT22;40936;53.008;6.556;2023-06-04T04:39:09;10.30;99.90
55036;DHT22;40936;53.008;6.556;2023-06-04T04:41:36;10.30;99.90
55036;DHT22;40936;53.008;6.556;2023-06-04T04:44:04;10.40;99.90
55036;DHT22;40936;53.008;6.556;2023-06-04T04:46:30;10.40;99.90
55036;DHT22;40936;53.008;6.556;2023-06-04T04:48:56;10.70;99.90
55036;DHT22;40936;53.008;6.556;2023-06-04T04:51:22;10.50;99.90
55036;DHT22;40936;53.008;6.556;2023-06-04T04:53:48;10.60;99.90
55036;DHT22;40936;53.008;6.556;2023-06-04T04:56:14;10.60;99.90
55036;DHT22;40936;53.008;6.556;2023-06-04T04:58:39;10.70;99.90
55036;DHT22;40936;53.008;6.556;2023-06-04T05:01:05;10.70;99.90
55036;DHT22;40936;53.008;6.556;2023-06-04T05:03:31;10.90;99.90
55036;DHT22;40936;53.008;6.556;2023-06-04T05:05:56;10.90;99.90
55036;DHT22;40936;53.008;6.556;2023-06-04T05:08:22;11.00;99.90
55036;DHT22;40936;53.008;6.556;2023-06-04T05:10:50;11.00;99.90
55036;DHT22;40936;53.008;6.556;2023-06-04T05:13:16;11.10;99.90
55036;DHT22;40936;53.008;6.556;2023-06-04T05:15:41;11.20;99.90
55036;DHT22;40936;53.008;6.556;2023-06-04T05:18:08;11.20;99.90
55036;DHT22;40936;53.008;6.556;2023-06-04T05:20:34;11.30;99.90
55036;DHT22;40936;53.008;6.556;2023-06-04T05:23:03;11.30;99.90
55036;DHT22;40936;53.008;6.556;2023-06-04T05:25:29;11.40;99.90
55036;DHT22;40936;53.008;6.556;2023-06-04T05:27:58;11.40;99.90
55036;DHT22;40936;53.008;6.556;2023-06-04T05:30:24;11.50;99.90
55036;DHT22;40936;53.008;6.556;2023-06-04T05:32:50;11.60;99.90
55036;DHT22;40936;53.008;6.556;2023-06-04T05:35:16;11.60;99.90
55036;DHT22;40936;53.008;6.556;2023-06-04T05:37:42;11.70;99.90
55036;DHT22;40936;53.008;6.556;2023-06-04T05:40:11;11.70;99.90
55036;DHT22;40936;53.008;6.556;2023-06-04T05:42:38;11.80;99.90
55036;DHT22;40936;53.008;6.556;2023-06-04T05:45:05;11.90;99.90
55036;DHT22;40936;53.008;6.556;2023-06-04T05:47:33;11.90;99.90
55036;DHT22;40936;53.008;6.556;2023-06-04T05:49:59;12.00;99.90
55036;DHT22;40936;53.008;6.556;2023-06-04T05:52:24;12.10;99.90
55036;DHT22;40936;53.008;6.556;2023-06-04T05:54:50;12.10;99.90
55036;DHT22;40936;53.008;6.556;2023-06-04T05:57:16;12.20;99.90
55036;DHT22;40936;53.008;6.556;2023-06-04T05:59:42;12.30;99.90
55036;DHT22;40936;53.008;6.556;2023-06-04T06:02:08;12.30;99.90
55036;DHT22;40936;53.008;6.556;2023-06-04T06:04:34;12.40;99.90
55036;DHT22;40936;53.008;6.556;2023-06-04T06:07:00;12.40;99.90
55036;DHT22;40936;53.008;6.556;2023-06-04T06:09:26;12.50;99.90
55036;DHT22;40936;53.008;6.556;2023-06-04T06:11:51;12.60;99.90
55036;DHT22;40936;53.008;6.556;2023-06-04T06:14:17;12.60;99.90
55036;DHT22;40936;53.008;6.556;2023-06-04T06:16:42;12.80;99.90
55036;DHT22;40936;53.008;6.556;2023-06-04T06:19:08;12.80;99.90
55036;DHT22;40936;53.008;6.556;2023-06-04T06:21:34;12.90;99.90
55036;DHT22;40936;53.008;6.556;2023-06-04T06:23:59;12.90;99.90
55036;DHT22;40936;53.008;6.556;2023-06-04T06:26:25;13.00;99.90
55036;DHT22;40936;53.008;6.556;2023-06-04T06:28:51;13.10;99.90
55036;DHT22;40936;53.008;6.556;2023-06-04T06:31:16;13.10;99.90
55036;DHT22;40936;53.008;6.556;2023-06-04T06:33:45;13.20;99.90
55036;DHT22;40936;53.008;6.556;2023-06-04T06:36:11;13.30;99.90
55036;DHT22;40936;53.008;6.556;2023-06-04T06:38:37;13.40;99.90
55036;DHT22;40936;53.008;6.556;2023-06-04T06:41:03;13.50;99.90
55036;DHT22;40936;53.008;6.556;2023-06-04T06:43:29;13.50;99.90
55036;DHT22;40936;53.008;6.556;2023-06-04T06:45:55;13.60;99.90
55036;DHT22;40936;53.008;6.556;2023-06-04T06:48:20;13.70;99.90
55036;DHT22;40936;53.008;6.556;2023-06-04T06:50:46;13.70;99.90
55036;DHT22;40936;53.008;6.556;2023-06-04T06:53:12;13.80;99.90
55036;DHT22;40936;53.008;6.556;2023-06-04T06:55:38;13.90;99.90
55036;DHT22;40936;53.008;6.556;2023-06-04T06:58:03;14.00;99.90
55036;DHT22;40936;53.008;6.556;2023-06-04T07:00:29;14.10;99.90
55036;DHT22;40936;53.008;6.556;2023-06-04T07:02:55;14.20;99.90
55036;DHT22;40936;53.008;6.556;2023-06-04T07:05:21;14.30;99.90
55036;DHT22;40936;53.008;6.556;2023-06-04T07:07:47;14.40;99.90
55036;DHT22;40936;53.008;6.556;2023-06-04T07:10:13;14.50;99.90
55036;DHT22;40936;53.008;6.556;2023-06-04T07:12:39;14.80;99.90
55036;DHT22;40936;53.008;6.556;2023-06-04T07:15:06;15.00;99.90
55036;DHT22;40936;53.008;6.556;2023-06-04T07:17:32;15.20;99.90
55036;DHT22;40936;53.008;6.556;2023-06-04T07:19:58;15.40;99.90
55036;DHT22;40936;53.008;6.556;2023-06-04T07:22:23;15.70;99.90
55036;DHT22;40936;53.008;6.556;2023-06-04T07:24:49;15.90;99.90
55036;DHT22;40936;53.008;6.556;2023-06-04T07:27:15;16.00;99.90
55036;DHT22;40936;53.008;6.556;2023-06-04T07:29:43;16.10;99.90
55036;DHT22;40936;53.008;6.556;2023-06-04T07:32:10;16.30;99.90
55036;DHT22;40936;53.008;6.556;2023-06-04T07:34:35;16.50;99.90
55036;DHT22;40936;53.008;6.556;2023-06-04T07:37:02;16.70;99.90
55036;DHT22;40936;53.008;6.556;2023-06-04T07:39:28;16.80;99.90
55036;DHT22;40936;53.008;6.556;2023-06-04T07:41:54;16.80;99.90
55036;DHT22;40936;53.008;6.556;2023-06-04T07:44:19;16.90;99.90
55036;DHT22;40936;53.008;6.556;2023-06-04T07:46:45;17.00;99.90
55036;DHT22;40936;53.008;6.556;2023-06-04T07:49:11;17.20;99.90
55036;DHT22;40936;53.008;6.556;2023-06-04T07:51:36;17.40;99.90
55036;DHT22;40936;53.008;6.556;2023-06-04T07:54:03;17.60;99.90
55036;DHT22;40936;53.008;6.556;2023-06-04T07:56:28;17.70;99.90
55036;DHT22;40936;53.008;6.556;2023-06-04T07:58:54;17.80;99.90
55036;DHT22;40936;53.008;6.556;2023-06-04T08:01:20;18.00;99.90
55036;DHT22;40936;53.008;6.556;2023-06-04T08:03:47;18.10;99.90
55036;DHT22;40936;53.008;6.556;2023-06-04T08:06:13;18.30;99.90
55036;DHT22;40936;53.008;6.556;2023-06-04T08:08:45;18.50;99.90
55036;DHT22;40936;53.008;6.556;2023-06-04T08:11:17;18.70;99.90
55036;DHT22;40936;53.008;6.556;2023-06-04T08:13:43;18.80;99.90
55036;DHT22;40936;53.008;6.556;2023-06-04T08:16:09;18.90;99.90
55036;DHT22;40936;53.008;6.556;2023-06-04T08:18:42;19.10;99.90
55036;DHT22;40936;53.008;6.556;2023-06-04T08:21:11;19.20;99.90
55036;DHT22;40936;53.008;6.556;2023-06-04T08:23:37;19.30;99.90
55036;DHT22;40936;53.008;6.556;2023-06-04T08:26:03;19.40;99.90
55036;DHT22;40936;53.008;6.556;2023-06-04T08:28:29;19.50;99.90
55036;DHT22;40936;53.008;6.556;2023-06-04T08:30:55;19.60;99.90
55036;DHT22;40936;53.008;6.556;2023-06-04T08:33:20;19.70;99.90
55036;DHT22;40936;53.008;6.556;2023-06-04T08:35:46;19.70;99.90
55036;DHT22;40936;53.008;6.556;2023-06-04T08:38:12;19.80;99.90
55036;DHT22;40936;53.008;6.556;2023-06-04T08:40:37;20.00;99.90
55036;DHT22;40936;53.008;6.556;2023-06-04T08:43:04;20.10;99.90
55036;DHT22;40936;53.008;6.556;2023-06-04T08:45:32;20.20;99.90
55036;DHT22;40936;53.008;6.556;2023-06-04T08:47:58;20.20;99.90
55036;DHT22;40936;53.008;6.556;2023-06-04T08:50:26;20.40;99.90
55036;DHT22;40936;53.008;6.556;2023-06-04T08:52:54;20.50;99.90
55036;DHT22;40936;53.008;6.556;2023-06-04T08:55:23;20.70;99.90
55036;DHT22;40936;53.008;6.556;2023-06-04T08:57:52;20.70;99.90
55036;DHT22;40936;53.008;6.556;2023-06-04T09:00:18;20.80;99.90
55036;DHT22;40936;53.008;6.556;2023-06-04T09:02:45;21.10;99.90
55036;DHT22;40936;53.008;6.556;2023-06-04T09:05:18;21.20;99.90
55036;DHT22;40936;53.008;6.556;2023-06-04T09:07:46;21.30;99.90
55036;DHT22;40936;53.008;6.556;2023-06-04T09:10:13;21.40;99.90
55036;DHT22;40936;53.008;6.556;2023-06-04T09:12:43;21.50;99.90
55036;DHT22;40936;53.008;6.556;2023-06-04T09:15:11;21.60;99.90
55036;DHT22;40936;53.008;6.556;2023-06-04T09:17:36;21.80;99.90
55036;DHT22;40936;53.008;6.556;2023-06-04T09:20:02;22.00;99.90
55036;DHT22;40936;53.008;6.556;2023-06-04T09:22:33;22.10;99.90
55036;DHT22;40936;53.008;6.556;2023-06-04T09:24:59;22.10;99.90
55036;DHT22;40936;53.008;6.556;2023-06-04T09:27:24;22.30;99.90
55036;DHT22;40936;53.008;6.556;2023-06-04T09:29:56;22.40;99.90
55036;DHT22;40936;53.008;6.556;2023-06-04T09:32:26;22.60;99.90
55036;DHT22;40936;53.008;6.556;2023-06-04T09:34:53;22.80;99.90
55036;DHT22;40936;53.008;6.556;2023-06-04T09:37:19;22.90;99.90
55036;DHT22;40936;53.008;6.556;2023-06-04T09:39:56;23.00;99.90
55036;DHT22;40936;53.008;6.556;2023-06-04T09:42:23;23.30;99.90
55036;DHT22;40936;53.008;6.556;2023-06-04T09:44:48;23.40;99.90
55036;DHT22;40936;53.008;6.556;2023-06-04T09:47:14;23.50;99.90
55036;DHT22;40936;53.008;6.556;2023-06-04T09:49:45;23.80;99.90
55036;DHT22;40936;53.008;6.556;2023-06-04T09:52:12;23.80;99.90
55036;DHT22;40936;53.008;6.556;2023-06-04T09:54:39;23.80;99.90
55036;DHT22;40936;53.008;6.556;2023-06-04T09:57:19;24.00;99.90
55036;DHT22;40936;53.008;6.556;2023-06-04T09:59:49;24.10;99.90
55036;DHT22;40936;53.008;6.556;2023-06-04T10:02:19;24.50;99.90
55036;DHT22;40936;53.008;6.556;2023-06-04T10:04:49;24.40;99.90
55036;DHT22;40936;53.008;6.556;2023-06-04T10:07:18;24.60;99.90
55036;DHT22;40936;53.008;6.556;2023-06-04T10:09:44;25.20;99.90
55036;DHT22;40936;53.008;6.556;2023-06-04T10:12:14;25.30;99.90
55036;DHT22;40936;53.008;6.556;2023-06-04T10:15:05;25.30;99.90
55036;DHT22;40936;53.008;6.556;2023-06-04T10:17:33;25.70;99.90
55036;DHT22;40936;53.008;6.556;2023-06-04T10:20:01;25.80;99.90
55036;DHT22;40936;53.008;6.556;2023-06-04T10:22:30;26.00;99.90
55036;DHT22;40936;53.008;6.556;2023-06-04T10:24:57;26.50;99.90
55036;DHT22;40936;53.008;6.556;2023-06-04T10:27:23;26.70;99.90
55036;DHT22;40936;53.008;6.556;2023-06-04T10:29:50;26.80;99.90
55036;DHT22;40936;53.008;6.556;2023-06-04T10:32:16;27.30;99.90
55036;DHT22;40936;53.008;6.556;2023-06-04T10:34:42;27.40;99.90
55036;DHT22;40936;53.008;6.556;2023-06-04T10:37:22;27.50;99.90
55036;DHT22;40936;53.008;6.556;2023-06-04T10:39:52;27.50;99.90
55036;DHT22;40936;53.008;6.556;2023-06-04T10:42:18;27.90;99.90
55036;DHT22;40936;53.008;6.556;2023-06-04T10:44:48;28.10;99.90
55036;DHT22;40936;53.008;6.556;2023-06-04T10:47:26;28.60;99.90
55036;DHT22;40936;53.008;6.556;2023-06-04T10:49:54;29.00;99.90
55036;DHT22;40936;53.008;6.556;2023-06-04T10:52:21;29.60;99.90
55036;DHT22;40936;53.008;6.556;2023-06-04T10:54:48;30.30;99.90
55036;DHT22;40936;53.008;6.556;2023-06-04T10:57:16;30.10;99.90
55036;DHT22;40936;53.008;6.556;2023-06-04T10:59:54;30.50;99.90
55036;DHT22;40936;53.008;6.556;2023-06-04T11:02:20;30.90;99.90
55036;DHT22;40936;53.008;6.556;2023-06-04T11:04:46;30.70;99.90
55036;DHT22;40936;53.008;6.556;2023-06-04T11:07:12;31.20;99.90
55036;DHT22;40936;53.008;6.556;2023-06-04T11:09:47;31.70;99.90
55036;DHT22;40936;53.008;6.556;2023-06-04T11:12:13;31.40;99.90
55036;DHT22;40936;53.008;6.556;2023-06-04T11:14:39;31.80;99.90
55036;DHT22;40936;53.008;6.556;2023-06-04T11:17:12;32.10;99.90
55036;DHT22;40936;53.008;6.556;2023-06-04T11:19:38;32.30;99.90
55036;DHT22;40936;53.008;6.556;2023-06-04T11:22:05;32.50;99.90
55036;DHT22;40936;53.008;6.556;2023-06-04T11:24:32;33.00;99.90
55036;DHT22;40936;53.008;6.556;2023-06-04T11:26:58;33.20;99.90
55036;DHT22;40936;53.008;6.556;2023-06-04T11:29:28;33.30;99.90
55036;DHT22;40936;53.008;6.556;2023-06-04T11:31:54;33.40;99.90
55036;DHT22;40936;53.008;6.556;2023-06-04T11:34:27;33.60;99.90
55036;DHT22;40936;53.008;6.556;2023-06-04T11:36:53;33.80;99.90
55036;DHT22;40936;53.008;6.556;2023-06-04T11:39:20;33.90;99.90
55036;DHT22;40936;53.008;6.556;2023-06-04T11:41:46;34.20;99.90
55036;DHT22;40936;53.008;6.556;2023-06-04T11:44:13;34.30;99.90
55036;DHT22;40936;53.008;6.556;2023-06-04T11:46:42;34.40;99.90
55036;DHT22;40936;53.008;6.556;2023-06-04T11:49:14;34.50;99.90
55036;DHT22;40936;53.008;6.556;2023-06-04T11:51:48;34.60;99.90
55036;DHT22;40936;53.008;6.556;2023-06-04T11:54:16;35.10;99.90
55036;DHT22;40936;53.008;6.556;2023-06-04T11:56:43;34.80;99.90
55036;DHT22;40936;53.008;6.556;2023-06-04T11:59:16;34.80;99.90
55036;DHT22;40936;53.008;6.556;2023-06-04T12:01:42;35.20;99.90
55036;DHT22;40936;53.008;6.556;2023-06-04T12:04:12;35.10;99.90
55036;DHT22;40936;53.008;6.556;2023-06-04T12:06:38;35.30;99.90
55036;DHT22;40936;53.008;6.556;2023-06-04T12:09:04;35.50;99.90
55036;DHT22;40936;53.008;6.556;2023-06-04T12:11:32;35.70;99.90
55036;DHT22;40936;53.008;6.556;2023-06-04T12:14:05;35.80;99.90
55036;DHT22;40936;53.008;6.556;2023-06-04T12:16:32;35.50;99.90
55036;DHT22;40936;53.008;6.556;2023-06-04T12:19:13;35.50;99.90
55036;DHT22;40936;53.008;6.556;2023-06-04T12:21:39;35.30;99.90
55036;DHT22;40936;53.008;6.556;2023-06-04T12:26:34;33.70;99.90
55036;DHT22;40936;53.008;6.556;2023-06-04T12:29:16;32.40;99.90
55036;DHT22;40936;53.008;6.556;2023-06-04T12:31:44;31.30;99.90
55036;DHT22;40936;53.008;6.556;2023-06-04T12:34:12;30.70;99.90
55036;DHT22;40936;53.008;6.556;2023-06-04T12:36:38;30.10;99.90
55036;DHT22;40936;53.008;6.556;2023-06-04T12:39:05;29.40;99.90
55036;DHT22;40936;53.008;6.556;2023-06-04T12:41:31;28.80;99.90
55036;DHT22;40936;53.008;6.556;2023-06-04T12:43:59;28.10;99.90
55036;DHT22;40936;53.008;6.556;2023-06-04T12:46:25;27.50;99.90
55036;DHT22;40936;53.008;6.556;2023-06-04T12:48:52;27.10;99.90
55036;DHT22;40936;53.008;6.556;2023-06-04T12:51:18;26.80;99.90
55036;DHT22;40936;53.008;6.556;2023-06-04T12:53:46;26.30;99.90
55036;DHT22;40936;53.008;6.556;2023-06-04T12:56:12;26.00;99.90
55036;DHT22;40936;53.008;6.556;2023-06-04T12:58:38;25.70;99.90
55036;DHT22;40936;53.008;6.556;2023-06-04T13:01:04;25.50;99.90
55036;DHT22;40936;53.008;6.556;2023-06-04T13:03:30;25.20;99.90
55036;DHT22;40936;53.008;6.556;2023-06-04T13:05:56;25.00;99.90
55036;DHT22;40936;53.008;6.556;2023-06-04T13:08:22;24.90;99.90
55036;DHT22;40936;53.008;6.556;2023-06-04T13:10:49;24.80;99.90
55036;DHT22;40936;53.008;6.556;2023-06-04T13:13:16;24.60;99.90
55036;DHT22;40936;53.008;6.556;2023-06-04T13:15:42;24.40;99.90
55036;DHT22;40936;53.008;6.556;2023-06-04T13:18:09;24.30;99.90
55036;DHT22;40936;53.008;6.556;2023-06-04T13:20:35;24.20;99.90
55036;DHT22;40936;53.008;6.556;2023-06-04T13:23:01;24.10;99.90
55036;DHT22;40936;53.008;6.556;2023-06-04T13:25:27;24.10;99.90
55036;DHT22;40936;53.008;6.556;2023-06-04T13:27:54;24.00;99.90
55036;DHT22;40936;53.008;6.556;2023-06-04T13:30:21;23.80;99.90
55036;DHT22;40936;53.008;6.556;2023-06-04T13:32:48;23.80;99.90
55036;DHT22;40936;53.008;6.556;2023-06-04T13:35:14;23.70;99.90
55036;DHT22;40936;53.008;6.556;2023-06-04T13:37:40;23.70;99.90
55036;DHT22;40936;53.008;6.556;2023-06-04T13:40:06;23.60;99.90
55036;DHT22;40936;53.008;6.556;2023-06-04T13:42:32;23.50;99.90
55036;DHT22;40936;53.008;6.556;2023-06-04T13:44:57;23.50;99.90
55036;DHT22;40936;53.008;6.556;2023-06-04T13:47:24;23.60;99.90
55036;DHT22;40936;53.008;6.556;2023-06-04T13:49:50;23.50;99.90
55036;DHT22;40936;53.008;6.556;2023-06-04T13:52:16;23.50;99.90
55036;DHT22;40936;53.008;6.556;2023-06-04T13:54:42;23.30;99.90
55036;DHT22;40936;53.008;6.556;2023-06-04T13:57:08;23.30;99.90
55036;DHT22;40936;53.008;6.556;2023-06-04T13:59:37;23.20;99.90
55036;DHT22;40936;53.008;6.556;2023-06-04T14:02:03;23.20;99.90
55036;DHT22;40936;53.008;6.556;2023-06-04T14:04:29;23.20;99.90
55036;DHT22;40936;53.008;6.556;2023-06-04T14:06:54;23.10;99.90
55036;DHT22;40936;53.008;6.556;2023-06-04T14:09:20;23.00;99.90
55036;DHT22;40936;53.008;6.556;2023-06-04T14:11:46;22.90;99.90
55036;DHT22;40936;53.008;6.556;2023-06-04T14:14:20;22.90;99.90
55036;DHT22;40936;53.008;6.556;2023-06-04T14:16:47;22.90;99.90
55036;DHT22;40936;53.008;6.556;2023-06-04T14:19:13;22.90;99.90
55036;DHT22;40936;53.008;6.556;2023-06-04T14:21:40;22.80;99.90
55036;DHT22;40936;53.008;6.556;2023-06-04T14:24:05;22.70;99.90
55036;DHT22;40936;53.008;6.556;2023-06-04T14:26:31;22.70;99.90
55036;DHT22;40936;53.008;6.556;2023-06-04T14:28:57;22.80;99.90
55036;DHT22;40936;53.008;6.556;2023-06-04T14:31:23;22.70;99.90
55036;DHT22;40936;53.008;6.556;2023-06-04T14:33:49;22.70;99.90
55036;DHT22;40936;53.008;6.556;2023-06-04T14:36:14;22.80;99.90
55036;DHT22;40936;53.008;6.556;2023-06-04T14:38:40;22.80;99.90
55036;DHT22;40936;53.008;6.556;2023-06-04T14:41:06;22.80;99.90
55036;DHT22;40936;53.008;6.556;2023-06-04T14:43:32;22.80;99.90
55036;DHT22;40936;53.008;6.556;2023-06-04T14:45:58;22.70;99.90
55036;DHT22;40936;53.008;6.556;2023-06-04T14:48:24;22.80;99.90
55036;DHT22;40936;53.008;6.556;2023-06-04T14:50:49;22.80;99.90
55036;DHT22;40936;53.008;6.556;2023-06-04T14:53:19;22.80;99.90
55036;DHT22;40936;53.008;6.556;2023-06-04T14:55:44;22.90;99.90
55036;DHT22;40936;53.008;6.556;2023-06-04T14:58:12;23.10;99.90
55036;DHT22;40936;53.008;6.556;2023-06-04T15:00:37;23.20;99.90
55036;DHT22;40936;53.008;6.556;2023-06-04T15:03:04;23.50;99.90
55036;DHT22;40936;53.008;6.556;2023-06-04T15:05:32;23.70;99.90
55036;DHT22;40936;53.008;6.556;2023-06-04T15:07:58;24.20;99.90
55036;DHT22;40936;53.008;6.556;2023-06-04T15:10:25;24.80;99.90
55036;DHT22;40936;53.008;6.556;2023-06-04T15:12:55;25.60;99.90
55036;DHT22;40936;53.008;6.556;2023-06-04T15:15:20;26.20;99.90
55036;DHT22;40936;53.008;6.556;2023-06-04T15:17:46;26.70;99.90
55036;DHT22;40936;53.008;6.556;2023-06-04T15:20:12;27.10;99.90
55036;DHT22;40936;53.008;6.556;2023-06-04T15:22:38;27.30;99.90
55036;DHT22;40936;53.008;6.556;2023-06-04T15:25:04;27.50;99.90
55036;DHT22;40936;53.008;6.556;2023-06-04T15:27:30;27.60;99.90
55036;DHT22;40936;53.008;6.556;2023-06-04T15:29:55;27.60;99.90
55036;DHT22;40936;53.008;6.556;2023-06-04T15:32:21;27.60;99.90
55036;DHT22;40936;53.008;6.556;2023-06-04T15:34:47;27.70;99.90
55036;DHT22;40936;53.008;6.556;2023-06-04T15:37:13;27.70;99.90
55036;DHT22;40936;53.008;6.556;2023-06-04T15:39:38;27.80;99.90